Time;durP1;ratioP1;P1;durP2;ratioP2;P2;SDS_P1;SDS_P2;PMS_P1;PMS_P2;Temp;Humidity;BMP_temperature;BMP_pressure;BME280_temperature;BME280_humidity;BME280_pressure;Samples;Min_cycle;Max_cycle;Signal;HPM_P1;HPM_P2
2023/03/06 14:58:27;;;;;;;20.83;10.98;;;;;;;5.71;82.24;99423.66;5232042;34;34553;-83
2023/03/06 15:01:36;;;;;;;25.83;10.95;;;;;;;5.62;82.18;99421.00;5283094;28;20129;-84
2023/03/06 15:04:51;;;;;;;21.60;10.50;;;;;;;5.44;82.96;99423.00;5289867;33;34439;-83
2023/03/06 15:12:24;;;;;;;19.98;10.50;;;;;;;5.66;82.58;99421.47;5290485;33;33563;-84
2023/03/06 15:15:30;;;;;;;20.45;10.75;;;;;;;5.72;82.68;99423.47;5290149;33;33638;-84
2023/03/06 15:18:37;;;;;;;21.75;10.57;;;;;;;5.78;82.23;99416.63;5272709;33;34036;-84
2023/03/06 15:21:53;;;;;;;21.12;10.43;;;;;;;5.72;82.10;99418.12;5273543;33;33878;-84
2023/03/06 15:25:13;;;;;;;21.75;10.85;;;;;;;5.73;82.86;99411.75;5273314;33;34127;-84
2023/03/06 15:28:37;;;;;;;21.33;10.20;;;;;;;5.80;82.74;99406.59;5289070;33;33982;-84
2023/03/06 15:31:42;;;;;;;17.23;10.05;;;;;;;5.76;82.19;99403.44;5296504;33;34609;-84
2023/03/06 15:34:45;;;;;;;19.40;9.93;;;;;;;5.72;82.59;99401.28;5285289;33;34668;-84
2023/03/06 15:37:48;;;;;;;17.95;9.60;;;;;;;5.40;83.85;99401.16;5282995;33;34548;-84
2023/03/06 15:40:56;;;;;;;20.75;9.15;;;;;;;5.31;85.04;99404.00;5295839;33;34695;-83
2023/03/06 15:44:01;;;;;;;19.33;9.75;;;;;;;5.28;85.71;99405.16;5297255;33;34267;-84
2023/03/06 15:47:04;;;;;;;19.30;9.50;;;;;;;5.21;85.61;99407.69;5307866;33;35192;-87
2023/03/06 15:50:19;;;;;;;20.23;9.27;;;;;;;5.10;85.99;99401.84;5295529;33;36993;-89
2023/03/06 15:53:23;;;;;;;20.75;9.60;;;;;;;4.90;87.33;99401.31;5291628;33;34371;-84
2023/03/06 15:56:33;;;;;;;18.58;9.32;;;;;;;4.98;87.50;99409.34;5291516;33;33888;-84
2023/03/06 15:59:42;;;;;;;20.67;9.55;;;;;;;4.84;87.87;99418.00;5291049;33;33606;-84
2023/03/06 16:02:45;;;;;;;20.17;8.90;;;;;;;4.84;87.99;99420.66;5290237;33;33923;-84
2023/03/06 16:05:48;;;;;;;19.20;8.98;;;;;;;4.70;88.32;99424.78;5278257;33;33806;-84
2023/03/06 16:08:52;;;;;;;18.45;8.25;;;;;;;4.63;89.43;99421.13;5290680;33;34264;-84
2023/03/06 16:11:55;;;;;;;18.42;8.40;;;;;;;4.61;89.21;99418.59;5294613;33;34125;-85
2023/03/06 16:15:00;;;;;;;23.00;9.38;;;;;;;4.54;90.33;99423.75;5297172;28;34364;-86
2023/03/06 16:18:05;;;;;;;20.88;9.18;;;;;;;4.47;91.38;99432.56;5273128;33;34398;-85
2023/03/06 16:21:07;;;;;;;24.42;10.23;;;;;;;4.43;91.75;99425.91;5248471;33;35381;-85
2023/03/06 16:24:14;;;;;;;18.42;9.48;;;;;;;4.46;91.87;99430.91;5241919;33;33596;-85
2023/03/06 16:27:18;;;;;;;18.83;9.35;;;;;;;4.48;92.25;99434.25;5243151;33;34722;-85
2023/03/06 16:30:24;;;;;;;18.65;8.63;;;;;;;4.39;93.51;99430.72;5231174;33;33514;-84
2023/03/06 16:33:26;;;;;;;19.98;8.85;;;;;;;4.37;92.91;99438.03;5242526;33;34361;-84
2023/03/06 16:36:30;;;;;;;16.00;8.40;;;;;;;4.29;93.40;99440.66;5244301;33;34131;-85
2023/03/06 16:39:33;;;;;;;16.23;9.32;;;;;;;4.25;93.67;99439.31;5238984;33;34779;-84
2023/03/06 16:42:36;;;;;;;18.65;9.07;;;;;;;4.27;94.11;99447.97;5246131;33;34058;-85
2023/03/06 16:45:40;;;;;;;19.62;8.15;;;;;;;4.23;93.81;99436.81;5248019;33;35457;-84
2023/03/06 16:48:44;;;;;;;18.48;9.18;;;;;;;4.27;93.33;99437.31;5272119;33;34270;-85
2023/03/06 16:51:47;;;;;;;16.98;8.63;;;;;;;4.21;93.02;99436.16;5273615;33;35368;-85
2023/03/06 16:54:50;;;;;;;17.85;8.85;;;;;;;4.12;93.63;99439.75;5273691;33;35732;-85
2023/03/06 16:57:53;;;;;;;20.23;9.82;;;;;;;4.11;94.25;99438.09;5261157;33;35446;-85
2023/03/06 17:00:57;;;;;;;18.62;9.40;;;;;;;4.20;93.73;99446.94;5263217;33;34319;-85
2023/03/06 17:03:59;;;;;;;22.73;10.05;;;;;;;4.28;93.20;99447.00;5238141;33;33980;-85
